createdAt,value
2017-08-06T00:00:36.803Z,22.20
2017-08-06T00:03:04.584Z,22.10
2017-08-06T00:05:32.079Z,22.10
2017-08-06T00:07:59.604Z,22.00
2017-08-06T00:10:27.131Z,21.80
2017-08-06T00:12:54.655Z,21.70
2017-08-06T00:15:22.180Z,21.70
2017-08-06T00:17:50.833Z,21.60
2017-08-06T00:20:19.127Z,21.50
2017-08-06T00:22:47.027Z,21.40
2017-08-06T00:25:14.583Z,21.40
2017-08-06T00:27:42.165Z,21.30
2017-08-06T00:30:09.701Z,21.30
2017-08-06T00:32:37.212Z,21.20
2017-08-06T00:35:05.878Z,21.20
2017-08-06T00:37:34.528Z,21.10
2017-08-06T00:40:02.060Z,21.20
2017-08-06T00:42:29.564Z,21.20
2017-08-06T00:44:57.088Z,21.10
2017-08-06T00:47:24.602Z,21.10
2017-08-06T00:49:52.530Z,21.00
2017-08-06T00:52:20.041Z,21.00
2017-08-06T00:54:47.588Z,21.00
2017-08-06T00:57:15.487Z,21.00
2017-08-06T00:59:42.995Z,20.90
2017-08-06T01:02:11.661Z,20.90
2017-08-06T01:04:39.172Z,20.90
2017-08-06T01:07:06.799Z,20.90
2017-08-06T01:09:34.707Z,20.90
2017-08-06T01:12:02.221Z,20.70
2017-08-06T01:14:29.724Z,20.60
2017-08-06T01:16:58.020Z,20.50
2017-08-06T01:19:25.930Z,20.40
2017-08-06T01:21:54.230Z,20.40
2017-08-06T01:24:21.723Z,20.40
2017-08-06T01:26:49.639Z,20.40
2017-08-06T01:29:17.146Z,20.40
2017-08-06T01:31:44.684Z,20.40
2017-08-06T01:34:12.203Z,20.30
2017-08-06T01:36:39.735Z,20.20
2017-08-06T01:39:07.248Z,20.20
2017-08-06T01:41:34.752Z,20.20
2017-08-06T01:44:02.280Z,20.20
2017-08-06T01:46:30.551Z,20.20
2017-08-06T01:48:58.076Z,20.20
2017-08-06T01:51:26.343Z,20.10
2017-08-06T01:53:53.878Z,20.10
2017-08-06T01:56:21.775Z,20.20
2017-08-06T01:58:49.306Z,20.20
2017-08-06T02:01:16.822Z,20.10
2017-08-06T02:03:44.346Z,20.20
2017-08-06T02:06:12.975Z,20.10
2017-08-06T02:08:40.491Z,20.20
2017-08-06T02:11:07.994Z,20.10
2017-08-06T02:13:36.291Z,20.00
2017-08-06T02:16:03.791Z,20.00
2017-08-06T02:18:32.064Z,20.00
2017-08-06T02:23:28.858Z,19.90
2017-08-06T02:25:56.383Z,19.80
2017-08-06T02:28:24.656Z,19.70
2017-08-06T02:33:21.043Z,19.80
2017-08-06T02:35:48.555Z,19.70
2017-08-06T02:38:16.059Z,19.70
2017-08-06T02:40:43.575Z,19.70
2017-08-06T02:43:11.079Z,19.70
2017-08-06T02:45:38.613Z,19.70
2017-08-06T02:48:06.875Z,19.70
2017-08-06T02:50:34.372Z,19.70
2017-08-06T02:53:01.905Z,19.70
2017-08-06T02:55:29.423Z,19.60
2017-08-06T02:57:56.947Z,19.60
2017-08-06T03:00:25.223Z,19.60
2017-08-06T03:02:52.740Z,19.60
2017-08-06T03:05:20.244Z,19.60
2017-08-06T03:07:48.554Z,19.60
2017-08-06T03:10:16.443Z,19.50
2017-08-06T03:12:43.975Z,19.50
2017-08-06T03:15:11.489Z,19.50
2017-08-06T03:17:39.804Z,19.50
2017-08-06T03:20:07.303Z,19.40
2017-08-06T03:22:34.814Z,19.40
2017-08-06T03:25:02.347Z,19.40
2017-08-06T03:27:29.849Z,19.30
2017-08-06T03:29:57.370Z,19.20
2017-08-06T03:32:25.636Z,19.20
2017-08-06T03:34:53.916Z,19.20
2017-08-06T03:37:22.194Z,19.10
2017-08-06T03:39:49.723Z,19.10
2017-08-06T03:42:18.371Z,19.10
2017-08-06T03:44:45.900Z,19.10
2017-08-06T03:47:14.552Z,19.10
2017-08-06T03:49:42.080Z,19.20
2017-08-06T03:52:09.596Z,19.20
2017-08-06T03:54:37.876Z,19.10
2017-08-06T03:57:06.171Z,19.20
2017-08-06T03:59:33.679Z,19.20
2017-08-06T04:02:01.203Z,19.20
2017-08-06T04:04:28.727Z,19.20
2017-08-06T04:06:56.257Z,19.20
2017-08-06T04:09:23.763Z,19.20
2017-08-06T04:11:51.276Z,19.20
2017-08-06T04:14:18.778Z,19.20
2017-08-06T04:16:47.075Z,19.20
2017-08-06T04:19:14.572Z,19.30
2017-08-06T04:21:42.100Z,19.30
2017-08-06T04:24:10.383Z,19.30
2017-08-06T04:26:38.675Z,19.30
2017-08-06T04:29:06.950Z,19.30
2017-08-06T04:31:34.457Z,19.30
2017-08-06T04:34:01.982Z,19.30
2017-08-06T04:36:29.483Z,19.20
2017-08-06T04:38:58.148Z,19.20
2017-08-06T04:41:25.646Z,19.20
2017-08-06T04:43:53.172Z,19.20
2017-08-06T04:48:50.318Z,19.20
2017-08-06T04:51:18.211Z,19.20
2017-08-06T04:53:45.735Z,19.10
2017-08-06T04:56:13.236Z,19.10
2017-08-06T04:58:40.752Z,19.20
2017-08-06T05:01:08.271Z,19.10
2017-08-06T05:03:35.794Z,19.10
2017-08-06T05:06:04.088Z,19.20
2017-08-06T05:08:31.596Z,19.20
2017-08-06T05:10:59.123Z,19.10
2017-08-06T05:13:27.398Z,19.20
2017-08-06T05:15:54.931Z,19.20
2017-08-06T05:18:22.428Z,19.30
2017-08-06T05:20:49.959Z,19.30
2017-08-06T05:23:17.473Z,19.40
2017-08-06T05:25:45.000Z,19.40
2017-08-06T05:28:12.523Z,19.50
2017-08-06T05:30:41.543Z,19.50
2017-08-06T05:33:10.214Z,19.60
2017-08-06T05:35:38.490Z,19.60
2017-08-06T05:38:06.779Z,19.70
2017-08-06T05:40:34.279Z,19.80
2017-08-06T05:43:01.810Z,19.80
2017-08-06T05:45:29.331Z,19.90
2017-08-06T05:47:58.359Z,19.90
2017-08-06T05:50:25.864Z,19.90
2017-08-06T05:52:54.168Z,19.90
2017-08-06T05:55:21.684Z,19.90
2017-08-06T05:57:49.192Z,19.90
2017-08-06T06:00:18.311Z,19.90
2017-08-06T06:02:45.827Z,19.90
2017-08-06T06:05:13.354Z,19.90
2017-08-06T06:07:40.855Z,19.80
2017-08-06T06:10:09.139Z,19.80
2017-08-06T06:12:36.648Z,19.70
2017-08-06T06:15:04.932Z,19.70
2017-08-06T06:17:32.428Z,19.70
2017-08-06T06:20:00.383Z,19.70
2017-08-06T06:22:27.879Z,19.70
2017-08-06T06:24:55.411Z,19.60
2017-08-06T06:27:23.683Z,19.60
2017-08-06T06:29:51.215Z,19.60
2017-08-06T06:32:18.723Z,19.70
2017-08-06T06:34:47.520Z,19.80
2017-08-06T06:37:15.048Z,19.90
2017-08-06T06:39:42.571Z,20.00
2017-08-06T06:42:10.100Z,20.00
2017-08-06T06:44:38.750Z,20.10
2017-08-06T06:47:06.280Z,20.10
2017-08-06T06:49:33.792Z,20.20
2017-08-06T06:52:01.329Z,20.30
2017-08-06T06:54:29.224Z,20.40
2017-08-06T06:56:56.759Z,20.50
2017-08-06T06:59:25.403Z,20.60
2017-08-06T07:01:54.061Z,20.80
2017-08-06T07:04:21.967Z,21.10
2017-08-06T07:09:18.346Z,21.50
2017-08-06T07:11:45.863Z,21.60
2017-08-06T07:14:14.135Z,21.80
2017-08-06T07:16:41.635Z,21.90
2017-08-06T07:19:10.676Z,21.90
2017-08-06T07:21:39.318Z,22.10
2017-08-06T07:24:07.619Z,22.30
2017-08-06T07:26:35.116Z,22.20
2017-08-06T07:29:03.781Z,22.10
2017-08-06T07:31:31.287Z,22.00
2017-08-06T07:33:59.604Z,21.90
2017-08-06T07:36:27.883Z,21.70
2017-08-06T07:38:55.817Z,21.70
2017-08-06T07:41:23.340Z,21.70
2017-08-06T07:43:50.894Z,21.70
2017-08-06T07:46:18.420Z,21.60
2017-08-06T07:48:45.941Z,21.70
2017-08-06T07:51:13.453Z,21.70
2017-08-06T07:53:40.961Z,21.70
2017-08-06T07:56:08.881Z,21.60
2017-08-06T07:58:37.144Z,21.50
2017-08-06T08:01:05.072Z,21.50
2017-08-06T08:03:32.571Z,21.40
2017-08-06T08:06:00.096Z,21.40
2017-08-06T08:08:28.379Z,21.30
2017-08-06T08:10:55.912Z,21.30
2017-08-06T08:13:23.415Z,21.30
2017-08-06T08:15:50.939Z,21.40
2017-08-06T08:18:19.216Z,21.50
2017-08-06T08:20:47.888Z,21.70
2017-08-06T08:23:15.387Z,21.70
2017-08-06T08:25:42.922Z,21.70
2017-08-06T08:28:10.824Z,21.60
2017-08-06T08:30:38.723Z,21.70
2017-08-06T08:33:07.392Z,21.90
2017-08-06T08:35:34.917Z,22.10
2017-08-06T08:38:03.229Z,22.20
2017-08-06T08:40:30.735Z,22.20
2017-08-06T08:42:58.263Z,22.20
2017-08-06T08:45:25.771Z,22.20
2017-08-06T08:47:53.296Z,22.20
2017-08-06T08:50:21.570Z,22.20
2017-08-06T08:52:49.096Z,22.20
2017-08-06T08:55:17.372Z,22.20
2017-08-06T08:57:45.290Z,22.40
2017-08-06T09:00:14.300Z,22.60
2017-08-06T09:05:11.451Z,22.60
2017-08-06T09:10:09.364Z,22.60
2017-08-06T09:12:38.003Z,22.50
2017-08-06T09:15:05.527Z,22.20
2017-08-06T09:17:33.037Z,22.10
2017-08-06T09:20:01.327Z,22.20
2017-08-06T09:22:29.602Z,22.20
2017-08-06T09:24:57.891Z,22.20
2017-08-06T09:27:26.235Z,22.60
2017-08-06T09:29:53.763Z,23.00
2017-08-06T09:32:22.044Z,23.20
2017-08-06T09:34:49.608Z,23.10
2017-08-06T09:37:17.115Z,23.30
2017-08-06T09:39:45.431Z,23.20
2017-08-06T09:42:12.948Z,23.40
2017-08-06T09:44:40.883Z,23.40
2017-08-06T09:47:08.388Z,23.30
2017-08-06T09:49:35.895Z,23.10
2017-08-06T09:52:03.811Z,22.90
2017-08-06T09:54:31.708Z,22.80
2017-08-06T09:56:59.232Z,22.70
2017-08-06T09:59:27.875Z,22.60
2017-08-06T10:01:56.159Z,22.50
2017-08-06T10:04:24.435Z,22.30
2017-08-06T10:06:53.088Z,22.20
2017-08-06T10:09:21.363Z,22.00
2017-08-06T10:11:48.887Z,22.00
2017-08-06T10:14:16.789Z,21.80
2017-08-06T10:16:44.316Z,21.60
2017-08-06T10:19:11.815Z,21.40
2017-08-06T10:21:40.120Z,21.40
2017-08-06T10:24:07.633Z,21.30
2017-08-06T10:26:36.635Z,21.40
2017-08-06T10:31:33.016Z,21.40
2017-08-06T10:34:00.544Z,21.40
2017-08-06T10:36:28.825Z,21.40
2017-08-06T10:38:56.347Z,21.30
2017-08-06T10:41:24.995Z,21.30
2017-08-06T10:43:52.520Z,21.30
2017-08-06T10:46:20.037Z,21.30
2017-08-06T10:48:47.571Z,21.30
2017-08-06T10:51:15.847Z,21.40
2017-08-06T10:56:12.984Z,21.30
2017-08-06T10:58:41.667Z,21.10
2017-08-06T11:01:09.159Z,21.00
2017-08-06T11:03:37.436Z,21.00
2017-08-06T11:06:04.960Z,21.10
2017-08-06T11:08:33.194Z,20.90
2017-08-06T11:11:00.724Z,20.80
2017-08-06T11:13:29.003Z,20.70
2017-08-06T11:15:56.530Z,20.60
2017-08-06T11:18:24.806Z,20.50
2017-08-06T11:20:52.324Z,20.50
2017-08-06T11:23:19.929Z,20.40
2017-08-06T11:25:47.470Z,20.40
2017-08-06T11:28:15.379Z,20.50
2017-08-06T11:30:42.903Z,20.60
2017-08-06T11:33:10.419Z,20.60
2017-08-06T11:35:37.955Z,20.60
2017-08-06T11:38:05.459Z,20.60
2017-08-06T11:40:33.002Z,20.60
2017-08-06T11:43:00.507Z,20.60
2017-08-06T11:45:28.023Z,20.50
2017-08-06T11:47:55.549Z,20.40
2017-08-06T11:50:23.471Z,20.50
2017-08-06T11:52:51.387Z,20.50
2017-08-06T11:55:18.904Z,20.40
2017-08-06T11:57:46.435Z,20.20
2017-08-06T12:00:14.715Z,20.00
2017-08-06T12:02:42.234Z,20.00
2017-08-06T12:05:09.738Z,19.90
2017-08-06T12:07:38.024Z,19.70
2017-08-06T12:10:05.531Z,19.60
2017-08-06T12:12:33.837Z,19.50
2017-08-06T12:15:02.103Z,19.50
2017-08-06T12:17:29.635Z,19.50
2017-08-06T12:19:57.544Z,19.40
2017-08-06T12:22:25.104Z,19.40
2017-08-06T12:24:52.627Z,19.30
2017-08-06T12:27:20.140Z,19.30
2017-08-06T12:29:48.459Z,19.30
2017-08-06T12:32:16.365Z,19.20
2017-08-06T12:34:43.995Z,19.10
2017-08-06T12:37:11.505Z,19.10
2017-08-06T12:39:39.027Z,19.10
2017-08-06T12:42:06.539Z,19.00
2017-08-06T12:44:34.058Z,19.00
2017-08-06T12:47:01.562Z,18.90
2017-08-06T12:49:29.487Z,18.90
2017-08-06T12:51:56.994Z,18.80
2017-08-06T12:54:24.523Z,18.70
2017-08-06T12:56:52.032Z,18.70
2017-08-06T12:59:19.540Z,18.70
2017-08-06T13:01:47.063Z,18.70
2017-08-06T13:04:14.575Z,18.70
2017-08-06T13:06:42.491Z,18.80
2017-08-06T13:09:10.007Z,18.90
2017-08-06T13:11:37.540Z,18.90
2017-08-06T13:14:05.067Z,19.00
2017-08-06T13:16:32.593Z,19.10
2017-08-06T13:19:00.880Z,19.10
2017-08-06T13:21:28.904Z,19.00
2017-08-06T13:23:56.415Z,19.00
2017-08-06T13:26:25.471Z,19.00
2017-08-06T13:28:52.978Z,19.10
2017-08-06T13:31:21.260Z,19.10
2017-08-06T13:33:48.792Z,19.10
2017-08-06T13:36:17.067Z,19.10
2017-08-06T13:38:44.990Z,19.10
2017-08-06T13:41:13.699Z,19.20
2017-08-06T13:43:41.215Z,19.20
2017-08-06T13:46:08.723Z,19.20
2017-08-06T13:48:36.642Z,19.20
2017-08-06T13:51:05.308Z,19.20
2017-08-06T13:53:33.263Z,19.30
2017-08-06T13:56:00.787Z,19.50
2017-08-06T13:58:29.095Z,19.60
2017-08-06T14:00:56.986Z,19.60
2017-08-06T14:05:53.447Z,19.60
2017-08-06T14:08:21.721Z,19.60
2017-08-06T14:10:49.247Z,19.60
2017-08-06T14:13:16.764Z,19.60
2017-08-06T14:15:45.055Z,19.50
2017-08-06T14:18:12.607Z,19.50
2017-08-06T14:20:40.566Z,19.50
2017-08-06T14:23:08.479Z,19.50
2017-08-06T14:25:36.021Z,19.50
2017-08-06T14:28:03.557Z,19.40
2017-08-06T14:30:31.079Z,19.30
2017-08-06T14:32:58.582Z,19.30
2017-08-06T14:35:26.108Z,19.20
2017-08-06T14:37:54.143Z,19.20
2017-08-06T14:40:21.699Z,19.20
2017-08-06T14:42:49.218Z,19.30
2017-08-06T14:45:16.740Z,19.20
2017-08-06T14:47:44.265Z,19.20
2017-08-06T14:50:11.763Z,19.10
2017-08-06T14:52:39.295Z,19.10
2017-08-06T14:55:07.935Z,19.10
2017-08-06T14:57:35.456Z,19.10
2017-08-06T15:00:03.732Z,19.10
2017-08-06T15:02:31.648Z,19.00
2017-08-06T15:04:59.159Z,19.00
2017-08-06T15:07:26.687Z,19.00
2017-08-06T15:09:54.187Z,18.90
2017-08-06T15:12:21.715Z,19.00
2017-08-06T15:14:49.995Z,19.00
2017-08-06T15:17:17.519Z,19.00
2017-08-06T15:19:45.031Z,19.00
2017-08-06T15:22:12.928Z,19.10
2017-08-06T15:27:10.072Z,19.20
2017-08-06T15:32:06.853Z,19.40
2017-08-06T15:34:34.767Z,19.50
2017-08-06T15:37:03.785Z,19.50
2017-08-06T15:39:31.695Z,19.50
2017-08-06T15:41:59.196Z,19.30
2017-08-06T15:44:27.504Z,19.30
2017-08-06T15:46:55.016Z,19.20
2017-08-06T15:49:22.539Z,19.20
2017-08-06T15:51:50.063Z,19.20
2017-08-06T15:54:17.568Z,19.20
2017-08-06T15:56:45.878Z,19.30
2017-08-06T15:59:13.392Z,19.40
2017-08-06T16:01:41.678Z,19.40
2017-08-06T16:04:09.225Z,19.40
2017-08-06T16:06:38.262Z,19.40
2017-08-06T16:09:06.263Z,19.30
2017-08-06T16:11:33.791Z,19.30
2017-08-06T16:14:01.311Z,19.40
2017-08-06T16:16:29.248Z,19.40
2017-08-06T16:18:57.147Z,19.30
2017-08-06T16:21:25.820Z,19.30
2017-08-06T16:23:53.331Z,19.30
2017-08-06T16:26:20.846Z,19.30
2017-08-06T16:28:49.127Z,19.30
2017-08-06T16:31:18.148Z,19.30
2017-08-06T16:33:46.807Z,19.20
2017-08-06T16:38:43.220Z,19.20
2017-08-06T16:41:10.716Z,19.30
2017-08-06T16:43:39.011Z,19.30
2017-08-06T16:46:06.912Z,19.50
2017-08-06T16:48:34.451Z,19.30
2017-08-06T16:51:03.462Z,19.30
2017-08-06T16:53:30.992Z,19.30
2017-08-06T16:55:59.640Z,19.20
2017-08-06T16:58:27.163Z,19.20
2017-08-06T17:00:54.680Z,19.20
2017-08-06T17:03:22.949Z,19.20
2017-08-06T17:05:50.475Z,19.10
2017-08-06T17:08:17.983Z,19.10
2017-08-06T17:10:47.272Z,19.10
2017-08-06T17:13:15.543Z,19.00
2017-08-06T17:15:43.459Z,19.10
2017-08-06T17:18:11.734Z,19.20
2017-08-06T17:20:39.668Z,19.20
2017-08-06T17:23:07.158Z,19.10
2017-08-06T17:25:34.697Z,19.10
2017-08-06T17:28:02.199Z,19.00
2017-08-06T17:30:30.472Z,19.10
2017-08-06T17:32:58.408Z,19.20
2017-08-06T17:35:25.898Z,19.30
2017-08-06T17:37:54.192Z,19.20
2017-08-06T17:40:22.465Z,19.10
2017-08-06T17:42:50.751Z,19.10
2017-08-06T17:45:18.260Z,19.10
2017-08-06T17:47:46.547Z,19.10
2017-08-06T17:50:14.819Z,19.00
2017-08-06T17:52:42.743Z,19.00
2017-08-06T17:55:10.635Z,19.00
2017-08-06T17:57:38.171Z,19.00
2017-08-06T18:00:05.675Z,18.90
2017-08-06T18:02:33.186Z,18.90
2017-08-06T18:05:00.724Z,18.90
2017-08-06T18:07:29.764Z,18.90
2017-08-06T18:09:57.686Z,19.00
2017-08-06T18:12:26.879Z,18.90
2017-08-06T18:14:54.820Z,18.90
2017-08-06T18:17:22.344Z,18.80
2017-08-06T18:19:49.865Z,18.80
2017-08-06T18:22:17.361Z,18.80
2017-08-06T18:24:45.463Z,18.70
2017-08-06T18:27:12.984Z,18.80
2017-08-06T18:29:40.895Z,18.70
2017-08-06T18:32:21.213Z,18.80
2017-08-06T18:34:48.788Z,18.80
2017-08-06T18:37:17.435Z,18.70
2017-08-06T18:39:44.960Z,18.60
2017-08-06T18:42:12.486Z,18.40
2017-08-06T18:44:40.386Z,18.40
2017-08-06T18:47:07.912Z,18.30
2017-08-06T18:49:35.807Z,18.30
2017-08-06T18:52:03.341Z,18.30
2017-08-06T18:57:00.155Z,18.30
2017-08-06T19:01:57.361Z,18.10
2017-08-06T19:04:26.050Z,18.10
2017-08-06T19:11:51.672Z,18.10
2017-08-06T19:14:19.214Z,18.00
2017-08-06T19:16:47.524Z,18.00
2017-08-06T19:19:15.015Z,18.00
2017-08-06T19:24:12.737Z,17.90
2017-08-06T19:26:40.641Z,17.90
2017-08-06T19:29:08.602Z,17.90
2017-08-06T19:31:36.881Z,17.80
2017-08-06T19:34:04.462Z,17.80
2017-08-06T19:36:32.739Z,17.80
2017-08-06T19:39:00.315Z,17.80
2017-08-06T19:41:27.832Z,17.70
2017-08-06T19:43:55.428Z,17.70
2017-08-06T19:48:53.439Z,17.70
2017-08-06T19:51:22.452Z,17.70
2017-08-06T19:53:50.044Z,17.70
2017-08-06T19:56:17.563Z,17.60
2017-08-06T19:58:45.292Z,17.50
2017-08-06T20:01:12.814Z,17.50
2017-08-06T20:03:41.510Z,17.50
2017-08-06T20:06:10.748Z,17.40
2017-08-06T20:08:38.281Z,17.40
2017-08-06T20:11:06.595Z,17.30
2017-08-06T20:13:34.103Z,17.30
2017-08-06T20:16:01.623Z,17.30
2017-08-06T20:18:29.904Z,17.20
2017-08-06T20:20:57.596Z,17.30
2017-08-06T20:23:25.861Z,17.30
2017-08-06T20:25:53.398Z,17.20
2017-08-06T20:28:20.895Z,17.20
2017-08-06T20:30:48.402Z,17.10
2017-08-06T20:33:15.935Z,17.10
2017-08-06T20:35:43.431Z,17.00
2017-08-06T20:38:10.951Z,17.00
2017-08-06T20:40:39.231Z,17.00
2017-08-06T20:43:07.164Z,16.90
2017-08-06T20:45:34.686Z,16.90
2017-08-06T20:48:02.320Z,16.90
2017-08-06T20:50:29.811Z,16.80
2017-08-06T20:52:57.331Z,16.70
2017-08-06T20:55:25.959Z,16.70
2017-08-06T20:57:54.236Z,16.80
2017-08-06T21:00:22.507Z,16.90
2017-08-06T21:02:50.015Z,16.80
2017-08-06T21:05:18.316Z,16.80
2017-08-06T21:07:47.325Z,16.80
2017-08-06T21:10:14.863Z,16.70
2017-08-06T21:12:42.355Z,16.70
2017-08-06T21:15:10.631Z,16.70
2017-08-06T21:17:38.145Z,16.60
2017-08-06T21:20:05.683Z,16.60
2017-08-06T21:22:33.192Z,16.60
2017-08-06T21:25:00.715Z,16.60
2017-08-06T21:27:28.227Z,16.60
2017-08-06T21:29:56.891Z,16.60
2017-08-06T21:32:25.168Z,16.50
2017-08-06T21:34:52.690Z,16.50
2017-08-06T21:37:21.323Z,16.50
2017-08-06T21:39:50.343Z,16.50
2017-08-06T21:42:17.863Z,16.50
2017-08-06T21:44:46.142Z,16.30
2017-08-06T21:47:14.057Z,16.20
2017-08-06T21:49:41.568Z,16.20
2017-08-06T21:52:09.093Z,16.20
2017-08-06T21:54:36.606Z,16.20
2017-08-06T21:57:04.141Z,16.20
2017-08-06T21:59:31.652Z,16.20
2017-08-06T22:01:59.177Z,16.10
2017-08-06T22:04:26.685Z,16.10
2017-08-06T22:06:54.606Z,16.10
2017-08-06T22:09:22.111Z,16.00
2017-08-06T22:11:50.388Z,16.00
2017-08-06T22:14:18.719Z,16.00
2017-08-06T22:16:46.226Z,15.90
2017-08-06T22:19:13.748Z,15.90
2017-08-06T22:21:41.240Z,15.90
2017-08-06T22:24:08.771Z,15.90
2017-08-06T22:26:36.289Z,15.90
2017-08-06T22:29:04.209Z,15.90
2017-08-06T22:31:32.487Z,15.90
2017-08-06T22:34:00.023Z,15.80
2017-08-06T22:36:28.676Z,15.80
2017-08-06T22:38:56.205Z,15.80
2017-08-06T22:41:24.111Z,15.70
2017-08-06T22:43:51.613Z,15.70
2017-08-06T22:46:19.150Z,15.70
2017-08-06T22:48:46.647Z,15.60
2017-08-06T22:51:14.272Z,15.60
2017-08-06T22:53:41.793Z,15.60
2017-08-06T22:56:09.323Z,15.60
2017-08-06T22:58:36.839Z,15.70
2017-08-06T23:01:04.381Z,15.60
2017-08-06T23:03:33.399Z,15.60
2017-08-06T23:06:00.931Z,15.60
2017-08-06T23:08:29.578Z,15.50
2017-08-06T23:10:57.100Z,15.50
2017-08-06T23:13:24.595Z,15.50
2017-08-06T23:15:52.096Z,15.40
2017-08-06T23:18:19.651Z,15.40
2017-08-06T23:20:47.174Z,15.40
2017-08-06T23:23:14.699Z,15.40
2017-08-06T23:25:42.979Z,15.40
2017-08-06T23:28:10.507Z,15.40
2017-08-06T23:30:38.028Z,15.40
2017-08-06T23:33:05.556Z,15.40
2017-08-06T23:35:33.074Z,15.40
2017-08-06T23:38:00.603Z,15.40
2017-08-06T23:40:28.099Z,15.40
2017-08-06T23:42:55.620Z,15.30
2017-08-06T23:45:23.112Z,15.20
2017-08-06T23:47:51.420Z,15.20
2017-08-06T23:50:18.946Z,15.20
2017-08-06T23:52:46.439Z,15.10
2017-08-06T23:55:14.741Z,15.10
2017-08-06T23:57:42.235Z,15.10
